Main page
METAR-TAF:

METAR-TAF

Airports :

Milan–Malpensa Airport

Milan, Italy

latitude: 45-37N, longitude: 008-44E, elevation: 234 m

Current weather observation

The report was made 24 minutes ago, at 02:20 UTC
Wind 7 kt from the North/Northeast
Temperature 19°C
Humidity 78%
Pressure 1019 hPa
Visibility 10 km or more
no clouds below 1500 m and no cumulonimbus

METAR: LIMC 190220Z 02007KT CAVOK 19/15 Q1019 NOSIG

Time: 04:44 (02:44 UTC)

Forecast

The report was made 3 hours and 44 minutes ago, at 23:00 UTC
Forecast valid from 19 at 00 UTC to 20 at 06 UTC
Wind 5 kt from variable directions
Visibility 10 km or more
no clouds below 1500 m and no cumulonimbus

TAF: LIMC 182300Z 1900/2006 VRB05KT CAVOK

Weather observations and forecasts of more than 4000 airports (METAR and TAF reports).

The available stations are represented by yellow and red dots on the map.

Hover mouse over dot to see the name of the station.

Then click to see weather observations and forecasts.

To change the map : click on the green buttons with a black cross to zoom in, on the green button with a dash to zoom out, or on the green arrows for adjacent maps.


METAR-TAF: